Time;durP1;ratioP1;P1;durP2;ratioP2;P2;SDS_P1;SDS_P2;PMS_P1;PMS_P2;Temp;Humidity;BMP_temperature;BMP_pressure;BME280_temperature;BME280_humidity;BME280_pressure;Samples;Min_cycle;Max_cycle;Signal;HPM_P1;HPM_P2
2023/01/07 00:00:34;;;;;;;;;;;;;;;16.87;65.90;101479.69;2084674;28;19929;-70
2023/01/07 00:01:37;;;;;;;;;;;;;;;16.88;65.69;101484.03;2090063;28;19932;-70
2023/01/07 00:02:39;;;;;;;;;;;;;;;16.88;65.86;101478.56;2081391;28;20578;-70
2023/01/07 00:03:42;;;;;;;;;;;;;;;16.87;66.03;101481.66;2083662;28;19929;-70
2023/01/07 00:04:44;;;;;;;;;;;;;;;16.87;66.02;101474.25;2083557;28;19928;-70
2023/01/07 00:05:46;;;;;;;;;;;;;;;16.86;65.92;101480.88;2072590;28;19940;-69
2023/01/07 00:06:51;;;;;;;;;;;;;;;16.87;66.03;101482.44;2075572;28;19926;-70
2023/01/07 00:07:54;;;;;;;;;;;;;;;16.87;66.11;101481.66;2076435;28;19926;-71
2023/01/07 00:08:57;;;;;;;;;;;;;;;16.87;66.01;101471.53;2082627;28;19933;-69
2023/01/07 00:10:00;;;;;;;;;;;;;;;16.87;65.99;101484.38;2082167;28;19925;-69
2023/01/07 00:11:03;;;;;;;;;;;;;;;16.88;65.71;101477.78;2074527;28;19949;-71
2023/01/07 00:12:04;;;;;;;;;;;;;;;16.87;65.78;101476.22;2079691;28;20420;-69
2023/01/07 00:13:07;;;;;;;;;;;;;;;16.87;65.67;101471.53;2083018;28;19933;-69
2023/01/07 00:14:10;;;;;;;;;;;;;;;16.87;65.82;101478.94;2086729;28;19931;-69
2023/01/07 00:15:13;;;;;;;;;;;;;;;16.86;65.96;101472.69;2073548;28;19929;-69
2023/01/07 00:16:15;;;;;;;;;;;;;;;16.87;65.91;101476.22;2088095;28;19935;-70
2023/01/07 00:17:18;;;;;;;;;;;;;;;16.86;65.73;101469.97;2089577;28;19925;-70
2023/01/07 00:18:20;;;;;;;;;;;;;;;16.86;65.82;101469.97;2080985;28;20032;-69
2023/01/07 00:19:23;;;;;;;;;;;;;;;16.86;65.86;101478.16;2076682;28;19936;-70
2023/01/07 00:20:24;;;;;;;;;;;;;;;16.87;66.14;101478.94;2083519;28;19994;-69
2023/01/07 00:21:28;;;;;;;;;;;;;;;16.86;66.00;101480.88;2082576;28;20300;-70
2023/01/07 00:22:31;;;;;;;;;;;;;;;16.86;66.07;101482.81;2085155;28;19928;-69
2023/01/07 00:23:34;;;;;;;;;;;;;;;16.86;66.12;101469.16;2084794;28;19925;-69
2023/01/07 00:24:36;;;;;;;;;;;;;;;16.86;65.91;101477.34;2085029;28;19933;-70
2023/01/07 00:25:38;;;;;;;;;;;;;;;16.86;65.92;101474.63;2085036;28;20313;-70
2023/01/07 00:26:41;;;;;;;;;;;;;;;16.85;65.66;101479.31;2082673;28;19929;-69
2023/01/07 00:27:42;;;;;;;;;;;;;;;16.86;65.89;101475.41;2084818;28;19925;-69
2023/01/07 00:28:46;;;;;;;;;;;;;;;16.86;65.81;101469.97;2084251;28;19929;-70
2023/01/07 00:29:48;;;;;;;;;;;;;;;16.86;65.96;101471.88;2086574;28;19925;-68
2023/01/07 00:30:50;;;;;;;;;;;;;;;16.86;65.84;101469.16;2088481;28;19940;-69
2023/01/07 00:31:52;;;;;;;;;;;;;;;16.86;65.87;101463.72;2085986;28;19955;-68
2023/01/07 00:33:03;;;;;;;;;;;;;;;16.85;65.84;101473.84;2081440;28;19929;-69
2023/01/07 00:34:06;;;;;;;;;;;;;;;16.86;65.83;101474.63;2078685;28;20305;-69
2023/01/07 00:35:21;;;;;;;;;;;;;;;16.85;65.73;101465.66;2077539;28;19926;-69
2023/01/07 00:36:23;;;;;;;;;;;;;;;16.85;65.71;101470.31;2078495;28;19929;-69
2023/01/07 00:38:48;;;;;;;;;;;;;;;16.85;65.99;101465.66;2084248;28;20419;-68
2023/01/07 00:39:51;;;;;;;;;;;;;;;16.86;65.66;101466.44;2082067;28;19937;-69
2023/01/07 00:40:52;;;;;;;;;;;;;;;16.85;65.97;101462.16;2079938;28;20036;-69
2023/01/07 00:43:15;;;;;;;;;;;;;;;16.85;65.91;101462.94;2088332;28;19933;-69
2023/01/07 00:44:17;;;;;;;;;;;;;;;16.85;65.84;101459.41;2087045;28;19933;-69
2023/01/07 00:45:20;;;;;;;;;;;;;;;16.85;65.73;101464.88;2080360;28;20009;-69
2023/01/07 00:46:22;;;;;;;;;;;;;;;16.84;65.86;101460.59;2077538;28;19965;-70
2023/01/07 00:47:25;;;;;;;;;;;;;;;16.84;65.82;101460.59;2087262;28;19995;-68
2023/01/07 00:48:27;;;;;;;;;;;;;;;16.84;65.84;101460.59;2086689;28;20710;-69
2023/01/07 00:49:30;;;;;;;;;;;;;;;16.84;65.67;101455.91;2072013;28;19929;-69
2023/01/07 00:50:33;;;;;;;;;;;;;;;16.84;65.92;101464.06;2071814;28;19929;-70
2023/01/07 00:51:35;;;;;;;;;;;;;;;16.83;65.99;101454.34;2079248;28;19929;-70
2023/01/07 00:52:38;;;;;;;;;;;;;;;16.84;65.66;101458.63;2080177;28;19933;-70
2023/01/07 00:53:40;;;;;;;;;;;;;;;16.84;66.08;101453.16;2080600;28;20293;-70
2023/01/07 00:54:44;;;;;;;;;;;;;;;16.84;65.82;101455.13;2082194;28;19929;-70
2023/01/07 00:55:46;;;;;;;;;;;;;;;16.84;66.14;101455.91;2081776;28;19936;-70
2023/01/07 00:56:49;;;;;;;;;;;;;;;16.84;65.92;101455.13;2085797;28;19925;-69
2023/01/07 00:57:51;;;;;;;;;;;;;;;16.85;65.78;101456.69;2088559;28;20050;-70
2023/01/07 00:58:54;;;;;;;;;;;;;;;16.84;65.65;101455.13;2088891;28;19971;-69
2023/01/07 00:59:56;;;;;;;;;;;;;;;16.85;65.82;101448.50;2093558;28;19952;-70
2023/01/07 01:01:00;;;;;;;;;;;;;;;16.84;65.67;101449.66;2085742;28;20689;-70
2023/01/07 01:02:02;;;;;;;;;;;;;;;16.84;65.84;101446.94;2084396;28;20002;-70
2023/01/07 01:03:05;;;;;;;;;;;;;;;16.84;65.90;101446.94;2079725;28;19929;-69
2023/01/07 01:04:07;;;;;;;;;;;;;;;16.84;65.64;101455.13;2072571;28;19979;-69
2023/01/07 01:05:10;;;;;;;;;;;;;;;16.85;65.84;101451.25;2079255;28;19929;-69
2023/01/07 01:06:14;;;;;;;;;;;;;;;16.83;66.05;101461.72;2086325;28;19933;-69
2023/01/07 01:07:17;;;;;;;;;;;;;;;16.84;65.99;101449.66;2085416;28;20020;-70
2023/01/07 01:08:20;;;;;;;;;;;;;;;16.83;65.86;101445.34;2083384;28;19925;-70
2023/01/07 01:09:24;;;;;;;;;;;;;;;16.84;65.90;101444.22;2081889;28;19929;-70
2023/01/07 01:10:27;;;;;;;;;;;;;;;16.84;65.88;101449.66;2086314;28;19929;-69
2023/01/07 01:11:29;;;;;;;;;;;;;;;16.84;65.90;101438.75;2083101;28;19979;-70
2023/01/07 01:12:34;;;;;;;;;;;;;;;16.84;65.73;101444.22;2083727;28;20483;-69
2023/01/07 01:13:37;;;;;;;;;;;;;;;16.83;65.98;101442.63;2085625;28;20016;-69
2023/01/07 01:14:38;;;;;;;;;;;;;;;16.83;65.96;101448.09;2082676;28;19956;-69
2023/01/07 01:15:42;;;;;;;;;;;;;;;16.83;65.74;101442.63;2081697;28;19932;-69
2023/01/07 01:16:43;;;;;;;;;;;;;;;16.82;65.95;101441.84;2081145;28;20518;-68
2023/01/07 01:17:46;;;;;;;;;;;;;;;16.82;65.93;101439.13;2075171;28;19968;-68
2023/01/07 01:18:48;;;;;;;;;;;;;;;16.83;65.92;101439.91;2056848;28;20040;-69
2023/01/07 01:19:51;;;;;;;;;;;;;;;16.83;65.80;101442.63;2061961;28;19930;-68
2023/01/07 01:20:53;;;;;;;;;;;;;;;16.82;65.87;101436.41;2077729;28;19929;-69
2023/01/07 01:21:56;;;;;;;;;;;;;;;16.83;65.77;101442.63;2086854;28;19924;-69
2023/01/07 01:22:58;;;;;;;;;;;;;;;16.82;65.89;101436.41;2089139;28;19939;-69
2023/01/07 01:24:00;;;;;;;;;;;;;;;16.82;65.87;101439.13;2085045;28;19932;-69
2023/01/07 01:25:02;;;;;;;;;;;;;;;16.81;65.59;101440.28;2088178;28;19929;-69
2023/01/07 01:26:07;;;;;;;;;;;;;;;16.82;65.87;101436.41;2085317;28;19925;-69
2023/01/07 01:27:09;;;;;;;;;;;;;;;16.76;65.68;101415.28;2083663;28;20441;-68
2023/01/07 01:28:12;;;;;;;;;;;;;;;16.82;65.97;101435.59;2084991;28;20345;-69
2023/01/07 01:29:16;;;;;;;;;;;;;;;16.82;65.82;101436.41;2080279;28;19929;-69
2023/01/07 01:30:18;;;;;;;;;;;;;;;16.82;65.86;101435.59;2071871;28;19934;-69
2023/01/07 01:31:20;;;;;;;;;;;;;;;16.81;65.91;101439.50;2069331;28;19951;-69
2023/01/07 01:32:26;;;;;;;;;;;;;;;16.81;65.88;101434.81;2078292;28;19929;-69
2023/01/07 01:33:28;;;;;;;;;;;;;;;16.81;65.83;101431.31;2079551;28;19933;-69
2023/01/07 01:34:31;;;;;;;;;;;;;;;16.82;65.93;101424.69;2090336;28;19935;-70
2023/01/07 01:35:32;;;;;;;;;;;;;;;16.82;66.07;101428.22;2090003;28;19932;-70
2023/01/07 01:36:35;;;;;;;;;;;;;;;16.81;65.90;101434.03;2085180;28;20723;-70
2023/01/07 01:37:37;;;;;;;;;;;;;;;16.81;66.04;101434.03;2064877;28;19926;-70
2023/01/07 01:38:40;;;;;;;;;;;;;;;16.82;65.87;101430.16;2071884;28;19925;-70
2023/01/07 01:39:42;;;;;;;;;;;;;;;16.81;65.71;101434.03;2080290;28;19929;-69
2023/01/07 01:40:45;;;;;;;;;;;;;;;16.82;65.98;101432.88;2080889;28;19929;-69
2023/01/07 01:41:48;;;;;;;;;;;;;;;16.82;65.91;101421.97;2087953;28;20467;-69
2023/01/07 01:42:50;;;;;;;;;;;;;;;16.82;65.87;101425.50;2072140;28;19929;-69
2023/01/07 01:43:53;;;;;;;;;;;;;;;16.81;66.04;101425.88;2065041;28;19930;-69
2023/01/07 01:44:56;;;;;;;;;;;;;;;16.82;65.91;101419.25;2066247;28;19929;-69
2023/01/07 01:46:10;;;;;;;;;;;;;;;16.81;65.97;101426.63;2068081;28;19925;-69
2023/01/07 01:47:16;;;;;;;;;;;;;;;16.81;65.92;101423.91;2074419;28;19929;-69
2023/01/07 01:48:19;;;;;;;;;;;;;;;16.82;65.76;101428.22;2081391;28;19933;-69
2023/01/07 01:49:23;;;;;;;;;;;;;;;16.80;66.07;101425.06;2079716;28;19924;-69
2023/01/07 01:50:28;;;;;;;;;;;;;;;16.80;66.12;101422.34;2064867;28;19932;-69
2023/01/07 01:51:35;;;;;;;;;;;;;;;16.81;66.00;101431.31;2077933;28;20004;-71
2023/01/07 01:52:39;;;;;;;;;;;;;;;16.81;65.88;101434.03;2088824;28;19963;-69
2023/01/07 01:53:41;;;;;;;;;;;;;;;16.81;66.08;101425.88;2085382;28;19932;-68
2023/01/07 01:54:45;;;;;;;;;;;;;;;16.80;65.72;101425.06;2071608;28;19929;-68
2023/01/07 01:55:49;;;;;;;;;;;;;;;16.81;65.85;101420.41;2060363;28;19934;-68
2023/01/07 01:56:54;;;;;;;;;;;;;;;16.80;65.84;101424.28;2065058;28;19976;-69
2023/01/07 01:57:59;;;;;;;;;;;;;;;16.80;65.95;101421.56;2075108;28;20669;-69
2023/01/07 01:59:04;;;;;;;;;;;;;;;16.80;65.68;101416.88;2071567;28;20012;-68
2023/01/07 02:00:08;;;;;;;;;;;;;;;16.80;65.79;101422.34;2087844;28;19950;-69
2023/01/07 02:01:20;;;;;;;;;;;;;;;16.80;65.92;101429.72;2083300;28;20395;-69
2023/01/07 02:02:23;;;;;;;;;;;;;;;16.80;65.90;101419.63;2091788;28;20019;-70
2023/01/07 02:03:27;;;;;;;;;;;;;;;16.81;66.02;101431.31;2081356;28;19964;-69
2023/01/07 02:04:29;;;;;;;;;;;;;;;16.80;66.07;101435.19;2085932;28;20244;-70
2023/01/07 02:05:33;;;;;;;;;;;;;;;16.79;65.92;101428.94;2076520;28;19926;-69
2023/01/07 02:06:38;;;;;;;;;;;;;;;16.80;65.90;101413.38;2058855;28;19930;-69
2023/01/07 02:07:41;;;;;;;;;;;;;;;16.80;65.69;101418.81;2070002;28;20375;-70
2023/01/07 02:08:42;;;;;;;;;;;;;;;16.80;65.81;101418.81;2071573;28;19926;-68
2023/01/07 02:09:46;;;;;;;;;;;;;;;16.79;65.83;101412.56;2071404;28;19929;-69
2023/01/07 02:10:51;;;;;;;;;;;;;;;16.80;65.69;101419.63;2071371;28;19934;-69
2023/01/07 02:12:00;;;;;;;;;;;;;;;16.79;65.84;101409.84;2066091;28;19977;-69
2023/01/07 02:13:16;;;;;;;;;;;;;;;16.79;65.89;101412.56;2081063;28;20365;-70
2023/01/07 02:14:30;;;;;;;;;;;;;;;16.80;65.74;101416.09;2092606;28;19936;-69
2023/01/07 02:15:40;;;;;;;;;;;;;;;16.79;65.72;101412.56;2087395;28;20398;-70
2023/01/07 02:16:46;;;;;;;;;;;;;;;16.79;66.05;101415.28;2081156;28;19929;-69
2023/01/07 02:17:58;;;;;;;;;;;;;;;16.80;65.90;101414.16;2072687;28;19929;-69
2023/01/07 02:19:16;;;;;;;;;;;;;;;16.79;66.06;101409.06;2066018;28;19953;-69
2023/01/07 02:20:33;;;;;;;;;;;;;;;16.79;66.03;101404.38;2075672;28;20388;-69
2023/01/07 02:21:38;;;;;;;;;;;;;;;16.80;65.76;101410.63;2082252;28;19981;-70
2023/01/07 02:22:51;;;;;;;;;;;;;;;16.80;65.76;101410.63;2085805;28;19928;-69
2023/01/07 02:24:07;;;;;;;;;;;;;;;16.79;65.91;101398.16;2080220;28;19925;-69
2023/01/07 02:25:29;;;;;;;;;;;;;;;16.79;65.67;101398.16;2081730;28;20391;-70
2023/01/07 02:26:38;;;;;;;;;;;;;;;16.79;65.72;101398.94;2086347;28;20300;-69
2023/01/07 02:27:55;;;;;;;;;;;;;;;16.79;65.95;101409.84;2086163;28;19936;-70
2023/01/07 02:29:08;;;;;;;;;;;;;;;16.79;66.06;101398.16;2075658;28;19930;-69
2023/01/07 02:30:33;;;;;;;;;;;;;;;16.79;65.91;101398.94;2078562;28;19959;-69
2023/01/07 02:31:48;;;;;;;;;;;;;;;16.79;66.01;101400.91;2083201;28;19936;-69
2023/01/07 02:33:04;;;;;;;;;;;;;;;16.78;65.64;101396.56;2082082;28;19933;-69
2023/01/07 02:34:07;;;;;;;;;;;;;;;16.79;65.97;101403.63;2080801;28;20396;-68
2023/01/07 02:35:19;;;;;;;;;;;;;;;16.78;66.09;101396.56;2080429;28;20008;-69
2023/01/07 02:36:30;;;;;;;;;;;;;;;16.79;65.91;101403.63;2084736;28;20425;-68
2023/01/07 02:37:39;;;;;;;;;;;;;;;16.79;65.93;101398.94;2080003;28;19978;-69
2023/01/07 02:38:48;;;;;;;;;;;;;;;16.78;65.92;101411.00;2071672;28;19925;-69
2023/01/07 02:39:58;;;;;;;;;;;;;;;16.79;65.90;101406.34;2080324;28;19929;-69
2023/01/07 02:41:04;;;;;;;;;;;;;;;16.79;65.82;101403.63;2086577;28;19954;-70
2023/01/07 02:42:10;;;;;;;;;;;;;;;16.78;65.76;101400.09;2079349;28;19925;-70
2023/01/07 02:43:14;;;;;;;;;;;;;;;16.77;66.03;101406.72;2073572;28;19929;-69
2023/01/07 02:44:22;;;;;;;;;;;;;;;16.78;66.08;101400.09;2087711;28;20407;-70
2023/01/07 02:45:27;;;;;;;;;;;;;;;16.79;65.70;101407.13;2087488;28;19933;-70
2023/01/07 02:46:32;;;;;;;;;;;;;;;16.78;65.66;101408.28;2080055;28;19929;-70
2023/01/07 02:47:37;;;;;;;;;;;;;;;16.78;65.92;101400.09;2084730;28;19929;-68
2023/01/07 02:48:40;;;;;;;;;;;;;;;16.78;65.88;101399.31;2086524;28;19932;-69
2023/01/07 02:49:43;;;;;;;;;;;;;;;16.78;65.71;101402.81;2064597;28;20024;-69
2023/01/07 02:50:44;;;;;;;;;;;;;;;16.78;66.08;101402.03;2066348;28;20091;-69
2023/01/07 02:51:47;;;;;;;;;;;;;;;16.78;66.27;101405.56;2079999;28;19932;-69
2023/01/07 02:52:48;;;;;;;;;;;;;;;16.77;66.07;101406.72;2086696;28;19933;-69
2023/01/07 02:53:51;;;;;;;;;;;;;;;16.77;65.88;101401.25;2085770;28;19929;-69
2023/01/07 02:54:55;;;;;;;;;;;;;;;16.77;65.69;101401.25;2080863;28;19925;-69
2023/01/07 02:56:06;;;;;;;;;;;;;;;16.78;65.63;101415.66;2083815;28;19983;-69
2023/01/07 02:57:18;;;;;;;;;;;;;;;16.78;65.79;101405.56;2085416;28;19933;-69
2023/01/07 02:58:37;;;;;;;;;;;;;;;16.77;65.85;101403.19;2079946;28;20420;-70
2023/01/07 02:59:47;;;;;;;;;;;;;;;16.78;65.93;101402.03;2085227;28;19936;-69
2023/01/07 03:00:57;;;;;;;;;;;;;;;16.77;65.87;101397.75;2079365;28;19994;-68
2023/01/07 03:02:20;;;;;;;;;;;;;;;16.77;65.78;101392.28;2071731;28;19929;-69
2023/01/07 03:03:30;;;;;;;;;;;;;;;16.77;65.71;101398.53;2076032;28;19929;-68
2023/01/07 03:04:41;;;;;;;;;;;;;;;16.78;65.73;101402.81;2086795;28;19972;-72
2023/01/07 03:05:51;;;;;;;;;;;;;;;16.77;65.97;101395.81;2082519;28;19936;-73
2023/01/07 03:07:00;;;;;;;;;;;;;;;16.76;65.94;101394.22;2085289;28;19932;-72
2023/01/07 03:08:10;;;;;;;;;;;;;;;16.77;66.04;101400.47;2087399;28;19925;-72
2023/01/07 03:09:19;;;;;;;;;;;;;;;16.77;66.08;101400.47;2086945;28;20281;-72
2023/01/07 03:10:26;;;;;;;;;;;;;;;16.77;65.69;101395.00;2083326;28;19932;-73
2023/01/07 03:11:32;;;;;;;;;;;;;;;16.77;65.97;101400.47;2073975;28;19932;-73
2023/01/07 03:12:39;;;;;;;;;;;;;;;16.77;65.96;101395.00;2077473;28;19930;-73
2023/01/07 03:13:43;;;;;;;;;;;;;;;16.77;65.69;101389.56;2077249;28;19930;-71
2023/01/07 03:14:48;;;;;;;;;;;;;;;16.77;65.82;101389.56;2082167;28;19978;-71
2023/01/07 03:15:52;;;;;;;;;;;;;;;16.77;65.77;101390.34;2082081;28;19929;-71
2023/01/07 03:17:00;;;;;;;;;;;;;;;16.76;65.68;101386.03;2082811;28;19952;-71
2023/01/07 03:18:04;;;;;;;;;;;;;;;16.77;65.68;101384.09;2080014;28;20387;-72
2023/01/07 03:19:11;;;;;;;;;;;;;;;16.77;65.85;101384.09;2079191;28;20435;-72
2023/01/07 03:20:14;;;;;;;;;;;;;;;16.76;65.87;101388.75;2086298;28;20439;-71
2023/01/07 03:21:18;;;;;;;;;;;;;;;16.77;65.93;101386.84;2085863;28;19935;-72
2023/01/07 03:22:22;;;;;;;;;;;;;;;16.76;65.95;101388.00;2069239;28;19975;-72
2023/01/07 03:23:26;;;;;;;;;;;;;;;16.77;65.82;101395.00;2067186;28;19956;-72
2023/01/07 03:24:30;;;;;;;;;;;;;;;16.76;65.90;101377.84;2068905;28;19929;-72
2023/01/07 03:25:35;;;;;;;;;;;;;;;16.76;65.94;101385.28;2070156;28;19929;-71
2023/01/07 03:26:39;;;;;;;;;;;;;;;16.77;66.09;101378.66;2085285;28;19929;-72
2023/01/07 03:27:42;;;;;;;;;;;;;;;16.76;66.00;101383.31;2080444;28;19968;-71
2023/01/07 03:28:44;;;;;;;;;;;;;;;16.77;65.97;101370.47;2079096;28;19929;-71
2023/01/07 03:29:47;;;;;;;;;;;;;;;16.76;66.07;101366.94;2070179;28;19972;-72
2023/01/07 03:30:50;;;;;;;;;;;;;;;16.76;66.00;101377.09;2063598;28;19976;-71
2023/01/07 03:31:56;;;;;;;;;;;;;;;16.76;65.91;101371.63;2065442;28;19930;-71
2023/01/07 03:33:00;;;;;;;;;;;;;;;16.76;65.87;101358.78;2073599;28;19932;-72
2023/01/07 03:34:05;;;;;;;;;;;;;;;16.75;65.82;101370.84;2077290;28;20447;-72
2023/01/07 03:35:08;;;;;;;;;;;;;;;16.76;65.86;101364.22;2079919;28;19972;-72
2023/01/07 03:36:12;;;;;;;;;;;;;;;16.76;65.99;101363.47;2083894;28;19929;-71
2023/01/07 03:37:15;;;;;;;;;;;;;;;16.76;65.73;101366.19;2079995;28;19955;-71
2023/01/07 03:38:19;;;;;;;;;;;;;;;16.76;66.07;101369.69;2081595;28;19929;-72
2023/01/07 03:39:23;;;;;;;;;;;;;;;16.75;65.78;101365.38;2072499;28;19930;-72
2023/01/07 03:40:25;;;;;;;;;;;;;;;16.76;65.89;101363.47;2071754;28;19988;-72
2023/01/07 03:42:55;;;;;;;;;;;;;;;16.76;66.00;101366.19;2059890;28;19937;-71
2023/01/07 03:43:59;;;;;;;;;;;;;;;16.76;65.86;101366.19;2057221;28;20034;-71
2023/01/07 03:45:02;;;;;;;;;;;;;;;16.77;65.92;101373.19;2068898;28;19932;-72
2023/01/07 03:46:06;;;;;;;;;;;;;;;16.77;65.78;101373.19;2077168;28;20490;-71
2023/01/07 03:47:09;;;;;;;;;;;;;;;16.75;65.92;101365.38;2081538;28;20300;-72
2023/01/07 03:48:11;;;;;;;;;;;;;;;16.75;65.79;101368.13;2082069;28;20392;-72
2023/01/07 03:49:13;;;;;;;;;;;;;;;16.76;65.73;101364.22;2091922;28;19936;-72
2023/01/07 03:50:17;;;;;;;;;;;;;;;16.75;66.07;101359.94;2089918;28;20020;-72
2023/01/07 03:51:21;;;;;;;;;;;;;;;16.76;65.86;101360.72;2081316;28;19933;-72
2023/01/07 03:52:22;;;;;;;;;;;;;;;16.74;65.75;101358.38;2084508;28;19933;-71
2023/01/07 03:53:25;;;;;;;;;;;;;;;16.75;65.97;101356.41;2093928;28;19928;-72
2023/01/07 03:54:27;;;;;;;;;;;;;;;16.75;66.15;101353.69;2090822;28;19936;-72
2023/01/07 03:55:29;;;;;;;;;;;;;;;16.76;65.84;101355.28;2092659;28;19932;-72
2023/01/07 03:56:32;;;;;;;;;;;;;;;16.76;65.98;101356.03;2085839;28;19971;-72
2023/01/07 03:57:34;;;;;;;;;;;;;;;16.74;65.61;101347.47;2079687;28;19929;-72
2023/01/07 03:58:37;;;;;;;;;;;;;;;16.75;65.78;101350.97;2074476;28;19929;-72
2023/01/07 03:59:39;;;;;;;;;;;;;;;16.75;65.69;101346.31;2072814;28;19937;-72
2023/01/07 04:00:41;;;;;;;;;;;;;;;16.75;65.93;101342.78;2071804;28;19969;-72
2023/01/07 04:01:49;;;;;;;;;;;;;;;16.75;65.75;101342.78;2079538;28;19963;-72
2023/01/07 04:02:51;;;;;;;;;;;;;;;16.74;65.99;101336.56;2089163;28;19929;-72
2023/01/07 04:04:08;;;;;;;;;;;;;;;16.75;65.99;101348.22;2075633;28;19929;-72
2023/01/07 04:05:10;;;;;;;;;;;;;;;16.75;66.00;101348.22;2075667;28;19932;-71
2023/01/07 04:06:14;;;;;;;;;;;;;;;16.75;66.01;101345.50;2081471;28;19932;-72
2023/01/07 04:07:16;;;;;;;;;;;;;;;16.74;65.25;101344.75;2065946;28;19932;-71
2023/01/07 04:08:18;;;;;;;;;;;;;;;16.75;65.61;101353.69;2079050;28;19929;-71
2023/01/07 04:09:20;;;;;;;;;;;;;;;16.75;65.67;101340.06;2088273;28;19955;-71
2023/01/07 04:10:23;;;;;;;;;;;;;;;16.74;65.72;101341.22;2084937;28;19936;-71
2023/01/07 04:11:26;;;;;;;;;;;;;;;16.75;65.79;101342.78;2081092;28;19965;-71
2023/01/07 04:12:29;;;;;;;;;;;;;;;16.75;65.70;101349.03;2081074;28;19983;-71
2023/01/07 04:13:30;;;;;;;;;;;;;;;16.74;65.69;101341.22;2087035;28;19933;-71
2023/01/07 04:14:33;;;;;;;;;;;;;;;16.75;66.16;101340.06;2085534;28;19978;-71
2023/01/07 04:15:34;;;;;;;;;;;;;;;16.75;65.75;101342.78;2087441;28;19929;-71
2023/01/07 04:16:37;;;;;;;;;;;;;;;16.74;65.86;101335.75;2075581;28;20384;-71
2023/01/07 04:17:39;;;;;;;;;;;;;;;16.74;65.89;101333.84;2081136;28;19929;-71
2023/01/07 04:18:43;;;;;;;;;;;;;;;16.75;65.91;101331.88;2082239;28;19944;-72
2023/01/07 04:19:45;;;;;;;;;;;;;;;16.74;65.81;101327.59;2084403;28;19929;-71
2023/01/07 04:20:47;;;;;;;;;;;;;;;16.74;65.93;101325.66;2082049;28;19930;-72
2023/01/07 04:21:51;;;;;;;;;;;;;;;16.75;65.89;101331.88;2076890;28;19933;-72
2023/01/07 04:22:54;;;;;;;;;;;;;;;16.74;65.98;101322.94;2078005;28;20439;-72
2023/01/07 04:23:56;;;;;;;;;;;;;;;16.74;65.92;101319.41;2088042;28;20435;-72
2023/01/07 04:24:59;;;;;;;;;;;;;;;16.75;65.96;101329.16;2076075;28;19995;-72
2023/01/07 04:26:00;;;;;;;;;;;;;;;16.73;65.93;101313.16;2074410;28;20345;-71
2023/01/07 04:27:03;;;;;;;;;;;;;;;16.74;65.56;101324.84;2086140;28;19936;-71
2023/01/07 04:28:04;;;;;;;;;;;;;;;16.74;65.84;101324.84;2088610;28;19929;-72
2023/01/07 04:29:07;;;;;;;;;;;;;;;16.75;65.74;101320.97;2084660;28;19972;-71
2023/01/07 04:30:09;;;;;;;;;;;;;;;16.74;65.99;101320.19;2081709;28;19925;-71
2023/01/07 04:31:12;;;;;;;;;;;;;;;16.74;65.72;101324.84;2088564;28;20049;-71
2023/01/07 04:32:14;;;;;;;;;;;;;;;16.73;65.77;101324.06;2080472;28;20409;-71
2023/01/07 04:33:16;;;;;;;;;;;;;;;16.74;66.04;101313.94;2076930;28;20385;-72
2023/01/07 04:34:18;;;;;;;;;;;;;;;16.74;65.84;101325.66;2071313;28;19925;-71
2023/01/07 04:35:22;;;;;;;;;;;;;;;16.74;65.86;101311.22;2075839;28;20515;-71
2023/01/07 04:36:25;;;;;;;;;;;;;;;16.74;65.87;101316.69;2088948;28;19936;-71
2023/01/07 04:37:28;;;;;;;;;;;;;;;16.74;66.06;101322.13;2082299;28;19965;-71
2023/01/07 04:38:31;;;;;;;;;;;;;;;16.74;65.69;101308.50;2073295;28;19937;-71
2023/01/07 04:39:33;;;;;;;;;;;;;;;16.74;65.76;101311.22;2078286;28;19933;-71
2023/01/07 04:40:35;;;;;;;;;;;;;;;16.74;65.77;101313.94;2078739;28;20297;-70
2023/01/07 04:41:37;;;;;;;;;;;;;;;16.73;65.64;101315.13;2067838;28;19960;-71
2023/01/07 04:42:40;;;;;;;;;;;;;;;16.74;66.00;101316.69;2082463;28;19929;-71
2023/01/07 04:43:43;;;;;;;;;;;;;;;16.74;66.14;101311.22;2089608;28;19933;-71
2023/01/07 04:44:45;;;;;;;;;;;;;;;16.73;65.73;101323.28;2095801;28;19928;-71
2023/01/07 04:45:47;;;;;;;;;;;;;;;16.73;65.89;101318.59;2080301;28;20483;-71
2023/01/07 04:46:51;;;;;;;;;;;;;;;16.73;65.92;101323.28;2072705;28;19980;-71
2023/01/07 04:47:53;;;;;;;;;;;;;;;16.74;65.93;101324.84;2086498;28;19929;-71
2023/01/07 04:48:56;;;;;;;;;;;;;;;16.73;65.88;101326.03;2087642;28;19933;-71
2023/01/07 04:49:58;;;;;;;;;;;;;;;16.73;65.85;101315.13;2073309;28;19929;-71
2023/01/07 04:51:05;;;;;;;;;;;;;;;16.74;66.09;101319.41;2076709;28;19929;-71
2023/01/07 04:52:07;;;;;;;;;;;;;;;16.73;65.66;101315.88;2079174;28;19929;-72
2023/01/07 04:53:12;;;;;;;;;;;;;;;16.73;66.09;101320.56;2064680;28;19988;-72
2023/01/07 04:54:14;;;;;;;;;;;;;;;16.73;66.14;101312.38;2061176;28;19925;-72
2023/01/07 04:55:17;;;;;;;;;;;;;;;16.73;65.85;101315.88;2064396;28;19998;-71
2023/01/07 04:56:20;;;;;;;;;;;;;;;16.73;65.86;101315.13;2071936;28;19929;-72
2023/01/07 04:57:23;;;;;;;;;;;;;;;16.73;65.84;101317.84;2071523;28;20591;-72
2023/01/07 04:58:26;;;;;;;;;;;;;;;16.72;66.09;101313.53;2071342;28;19926;-72
2023/01/07 04:59:30;;;;;;;;;;;;;;;16.72;65.76;101314.31;2073048;28;19937;-72
2023/01/07 05:00:34;;;;;;;;;;;;;;;16.73;65.97;101315.13;2080462;28;19933;-72
2023/01/07 05:01:38;;;;;;;;;;;;;;;16.72;65.95;101321.69;2087990;28;19929;-71
2023/01/07 05:02:41;;;;;;;;;;;;;;;16.72;65.80;101316.25;2073027;28;20064;-72
2023/01/07 05:03:45;;;;;;;;;;;;;;;16.72;65.78;101310.81;2066979;28;19937;-72
2023/01/07 05:04:48;;;;;;;;;;;;;;;16.73;65.80;101315.13;2068826;28;19953;-72
2023/01/07 05:05:52;;;;;;;;;;;;;;;16.73;65.82;101315.13;2075385;28;19967;-73
2023/01/07 05:06:56;;;;;;;;;;;;;;;16.72;65.79;101311.59;2078093;28;19956;-73
2023/01/07 05:07:59;;;;;;;;;;;;;;;16.72;65.92;101310.81;2084097;28;20458;-72
2023/01/07 05:09:05;;;;;;;;;;;;;;;16.72;65.85;101313.53;2086614;28;19928;-71
2023/01/07 05:10:07;;;;;;;;;;;;;;;16.72;65.88;101314.31;2087273;28;19925;-71
2023/01/07 05:11:10;;;;;;;;;;;;;;;16.73;65.93;101309.66;2079118;28;20399;-72
2023/01/07 05:12:15;;;;;;;;;;;;;;;16.73;65.97;101312.38;2073206;28;19964;-72
2023/01/07 05:13:19;;;;;;;;;;;;;;;16.73;65.72;101312.38;2085575;28;19936;-72
2023/01/07 05:14:21;;;;;;;;;;;;;;;16.72;65.80;101306.13;2088185;28;19978;-71
2023/01/07 05:15:27;;;;;;;;;;;;;;;16.72;65.99;101305.34;2075811;28;19936;-72
2023/01/07 05:16:30;;;;;;;;;;;;;;;16.72;66.07;101294.44;2071708;28;19996;-71
2023/01/07 05:17:35;;;;;;;;;;;;;;;16.72;65.92;101295.22;2064992;28;19963;-71
2023/01/07 05:18:39;;;;;;;;;;;;;;;16.73;65.69;101298.75;2069623;28;20428;-71
2023/01/07 05:19:41;;;;;;;;;;;;;;;16.72;65.79;101305.34;2076171;28;20010;-71
2023/01/07 05:20:46;;;;;;;;;;;;;;;16.72;65.89;101306.13;2069867;28;19933;-72
2023/01/07 05:21:48;;;;;;;;;;;;;;;16.72;65.85;101297.16;2072525;28;19929;-71
2023/01/07 05:22:51;;;;;;;;;;;;;;;16.72;66.07;101297.97;2079602;28;19929;-72
2023/01/07 05:23:53;;;;;;;;;;;;;;;16.72;65.80;101294.44;2074526;28;20290;-72
2023/01/07 05:24:58;;;;;;;;;;;;;;;16.73;66.05;101290.56;2086245;28;20479;-72
2023/01/07 05:26:01;;;;;;;;;;;;;;;16.72;65.75;101294.44;2069280;28;19934;-72
2023/01/07 05:27:05;;;;;;;;;;;;;;;16.72;65.76;101297.16;2066494;28;19984;-72
2023/01/07 05:28:08;;;;;;;;;;;;;;;16.72;65.99;101291.72;2083219;28;19929;-72
2023/01/07 05:29:13;;;;;;;;;;;;;;;16.72;65.96;101288.97;2081010;28;19925;-72
2023/01/07 05:30:16;;;;;;;;;;;;;;;16.70;65.71;101286.63;2080939;28;19968;-72
2023/01/07 05:31:20;;;;;;;;;;;;;;;16.72;65.85;101288.97;2085046;28;20079;-72
2023/01/07 05:32:22;;;;;;;;;;;;;;;16.72;65.92;101292.50;2081186;28;20407;-72
2023/01/07 05:33:25;;;;;;;;;;;;;;;16.70;65.84;101291.31;2080444;28;19936;-72
2023/01/07 05:34:28;;;;;;;;;;;;;;;16.71;65.92;101287.44;2079141;28;19933;-72